Time;durP1;ratioP1;P1;durP2;ratioP2;P2;SDS_P1;SDS_P2;PMS_P1;PMS_P2;Temp;Humidity;BMP_temperature;BMP_pressure;BME280_temperature;BME280_humidity;BME280_pressure;Samples;Min_cycle;Max_cycle;Signal;HPM_P1;HPM_P2
2021/12/19 00:04:54;;;;;;;7.57;4.70;;;;;;;-0.68;100.00;60739.00;5075136;28;20453;-80
2021/12/19 00:10:16;;;;;;;8.30;4.80;;;;;;;-0.49;100.00;60749.09;5075516;28;20429;-76
2021/12/19 00:12:46;;;;;;;6.17;4.40;;;;;;;0.18;100.00;60825.09;5075841;28;20430;-76
2021/12/19 00:15:24;;;;;;;11.67;4.60;;;;;;;0.33;100.00;60840.97;5075006;28;20868;-78
2021/12/19 00:17:56;;;;;;;10.67;5.17;;;;;;;0.36;100.00;60846.13;5075607;28;20480;-77
2021/12/19 00:20:24;;;;;;;6.43;4.47;;;;;;;-0.51;100.00;60752.00;5073878;28;20949;-75
2021/12/19 00:22:56;;;;;;;8.60;5.07;;;;;;;0.13;100.00;60824.78;5074963;28;20446;-76
2021/12/19 00:25:24;;;;;;;8.40;4.63;;;;;;;0.25;100.00;60837.50;5075440;28;20458;-75
2021/12/19 00:28:01;;;;;;;6.93;4.67;;;;;;;-0.78;100.00;60728.41;5074801;28;20470;-76
2021/12/19 00:30:28;;;;;;;7.50;5.03;;;;;;;0.18;100.00;60825.09;5073789;28;20478;-78
2021/12/19 00:32:59;;;;;;;8.07;5.00;;;;;;;0.13;100.00;60819.78;5076146;28;20435;-76
2021/12/19 00:35:36;;;;;;;8.77;5.40;;;;;;;0.02;100.00;60805.63;5077931;28;20450;-75
2021/12/19 00:38:09;;;;;;;9.17;5.10;;;;;;;-1.12;100.00;60688.50;5076623;28;20452;-77
2021/12/19 00:40:38;;;;;;;9.23;5.70;;;;;;;0.00;100.00;60806.00;5075442;28;20458;-77
2021/12/19 00:43:12;;;;;;;10.93;5.63;;;;;;;-0.09;100.00;60797.00;5075234;28;20512;-75
2021/12/19 00:45:47;;;;;;;9.57;5.10;;;;;;;-0.03;100.00;60803.34;5074498;28;20462;-76
2021/12/19 00:51:01;;;;;;;6.30;4.50;;;;;;;-0.28;100.00;60776.34;5074585;28;20852;-76
2021/12/19 00:53:30;;;;;;;8.83;5.33;;;;;;;-0.21;100.00;60784.28;5074443;28;20459;-77
2021/12/19 00:55:58;;;;;;;9.20;5.53;;;;;;;-0.25;100.00;60779.53;5076188;28;20527;-77
2021/12/19 00:58:29;;;;;;;10.03;6.07;;;;;;;-0.39;100.00;60767.19;5086626;28;20427;-77
2021/12/19 01:01:02;;;;;;;10.20;5.73;;;;;;;-0.30;100.00;60772.25;5074575;28;20455;-76
2021/12/19 01:03:59;;;;;;;8.83;5.10;;;;;;;-0.29;100.00;60778.31;5073990;28;20450;-78
2021/12/19 01:06:28;;;;;;;9.63;6.33;;;;;;;-0.33;100.00;60773.56;5073897;28;20480;-77
2021/12/19 01:09:01;;;;;;;13.20;6.43;;;;;;;-0.43;100.00;60760.47;5073859;28;20450;-76
2021/12/19 01:11:32;;;;;;;15.73;7.00;;;;;;;-1.87;100.00;60601.69;5074215;28;20988;-76
2021/12/19 01:16:46;;;;;;;10.53;7.10;;;;;;;-1.75;100.00;60626.84;5074061;28;20449;-77
2021/12/19 01:19:15;;;;;;;11.23;6.90;;;;;;;-0.47;100.00;60756.22;5074191;28;20462;-76
2021/12/19 01:21:45;;;;;;;11.17;7.17;;;;;;;-0.55;100.00;60748.28;5074159;28;20855;-77
2021/12/19 01:24:15;;;;;;;10.87;5.17;;;;;;;-0.55;100.00;60747.75;5073897;28;20469;-77
2021/12/19 01:26:44;;;;;;;11.17;6.50;;;;;;;-1.32;100.00;60664.84;5073887;28;20430;-77
2021/12/19 01:29:15;;;;;;;9.53;6.57;;;;;;;-1.83;100.00;60623.38;5073780;28;20485;-76
2021/12/19 01:31:50;;;;;;;16.53;7.03;;;;;;;-1.40;100.00;60658.34;5073828;28;20482;-77
2021/12/19 01:34:27;;;;;;;12.97;6.90;;;;;;;-1.46;100.00;60651.97;5073961;28;20825;-77
2021/12/19 01:37:00;;;;;;;11.30;7.40;;;;;;;-0.60;100.00;60737.47;5074203;28;20462;-79
2021/12/19 01:39:36;;;;;;;12.00;6.57;;;;;;;-1.41;100.00;60655.31;5073543;28;20443;-75
2021/12/19 01:42:23;;;;;;;12.03;6.47;;;;;;;-0.48;100.00;60755.19;5073634;28;20508;-78
2021/12/19 01:44:53;;;;;;;11.00;6.60;;;;;;;-0.57;100.00;60745.63;5073299;28;20447;-76
2021/12/19 01:47:22;;;;;;;11.17;6.23;;;;;;;-0.55;100.00;60745.25;5074381;28;20796;-74
2021/12/19 01:49:55;;;;;;;11.33;6.80;;;;;;;-0.55;100.00;60752.75;5073776;28;20451;-78
2021/12/19 01:52:22;;;;;;;11.43;6.37;;;;;;;-0.55;100.00;60750.25;5073681;28;20482;-76
2021/12/19 01:54:52;;;;;;;10.03;6.17;;;;;;;-0.47;100.00;60756.22;5073662;28;20430;-75
2021/12/19 01:57:22;;;;;;;11.27;6.23;;;;;;;-0.47;100.00;60761.22;5073582;28;20434;-77
2021/12/19 01:59:55;;;;;;;9.33;6.20;;;;;;;-1.71;100.00;60616.63;5073681;28;20446;-78
2021/12/19 02:02:24;;;;;;;9.47;5.90;;;;;;;-0.64;100.00;60733.25;5073700;28;20448;-78
2021/12/19 02:05:05;;;;;;;10.40;6.30;;;;;;;-0.43;100.00;60760.47;5072420;28;20514;-76
2021/12/19 02:07:32;;;;;;;9.47;6.00;;;;;;;-1.64;100.00;60633.47;5073122;28;20437;-76
2021/12/19 02:10:03;;;;;;;9.50;5.37;;;;;;;-0.43;100.00;60760.47;5072934;28;20447;-77
2021/12/19 02:12:31;;;;;;;9.47;6.27;;;;;;;-0.47;100.00;60753.72;5072969;28;20535;-75
2021/12/19 02:15:05;;;;;;;9.63;5.97;;;;;;;-1.70;100.00;60627.13;5072989;28;20445;-78
2021/12/19 02:17:36;;;;;;;8.43;5.77;;;;;;;-1.86;100.00;60605.22;5073018;28;20427;-76
2021/12/19 02:20:15;;;;;;;9.67;5.97;;;;;;;-0.32;100.00;60769.63;5071421;28;20449;-75
2021/12/19 02:22:46;;;;;;;12.90;5.83;;;;;;;-0.27;100.00;60777.41;5073072;28;20488;-76
2021/12/19 02:25:15;;;;;;;9.10;5.43;;;;;;;-1.63;100.00;60632.06;5072669;28;20443;-77
2021/12/19 02:27:42;;;;;;;8.60;5.70;;;;;;;-0.29;100.00;60775.81;5072676;28;21030;-76
2021/12/19 02:30:13;;;;;;;9.60;5.80;;;;;;;-0.32;100.00;60774.63;5072663;28;20492;-75
2021/12/19 02:32:42;;;;;;;8.97;5.80;;;;;;;-1.46;100.00;60654.47;5071217;28;20470;-77
2021/12/19 02:35:33;;;;;;;10.67;6.40;;;;;;;-0.21;100.00;60783.75;5072009;28;20516;-77
2021/12/19 02:38:31;;;;;;;10.03;6.30;;;;;;;-0.91;100.00;60713.22;5072602;28;20447;-76
2021/12/19 02:49:32;;;;;;;11.63;6.53;;;;;;;-0.27;100.00;60782.41;5072726;28;20893;-76
2021/12/19 02:52:13;;;;;;;10.40;7.20;;;;;;;-0.15;100.00;60792.63;5073626;28;20823;-77
2021/12/19 02:54:40;;;;;;;9.50;6.17;;;;;;;-0.14;100.00;60796.19;5072783;28;20442;-76
2021/12/19 02:57:12;;;;;;;10.97;7.07;;;;;;;-0.02;100.00;60803.91;5072623;28;20800;-77
2021/12/19 02:59:47;;;;;;;11.73;6.53;;;;;;;-0.06;100.00;60799.66;5072732;28;20457;-78
2021/12/19 03:02:15;;;;;;;10.30;6.47;;;;;;;-0.20;100.00;60784.81;5072798;28;20955;-77
2021/12/19 03:04:53;;;;;;;12.23;6.70;;;;;;;-1.38;100.00;60665.97;5072681;28;20447;-76
2021/12/19 03:07:27;;;;;;;10.13;6.63;;;;;;;-0.46;100.00;60757.28;5072431;28;20782;-78
2021/12/19 03:10:23;;;;;;;10.10;6.40;;;;;;;-0.04;100.00;60806.78;5077168;28;20432;-76
2021/12/19 03:13:05;;;;;;;13.23;6.80;;;;;;;-0.34;100.00;60770.00;5077694;28;20543;-76
2021/12/19 03:18:19;;;;;;;8.87;5.60;;;;;;;-0.15;100.00;60790.66;5072346;28;20581;-77
2021/12/19 03:20:47;;;;;;;12.10;6.10;;;;;;;0.08;100.00;60814.50;5072353;28;20458;-76
2021/12/19 03:23:17;;;;;;;10.47;6.20;;;;;;;-0.03;100.00;60800.31;5071749;28;20442;-76
2021/12/19 03:25:52;;;;;;;9.73;6.00;;;;;;;-0.01;100.00;60804.94;5072104;28;20542;-76
2021/12/19 03:28:33;;;;;;;12.43;5.97;;;;;;;0.02;100.00;60813.13;5072521;28;20853;-75
2021/12/19 03:31:02;;;;;;;11.80;6.17;;;;;;;0.00;100.00;60808.50;5072120;28;20439;-77
2021/12/19 03:33:35;;;;;;;12.57;6.33;;;;;;;-1.53;100.00;60645.13;5072066;28;20443;-76
2021/12/19 03:36:06;;;;;;;9.77;5.90;;;;;;;-0.51;100.00;60757.00;5071864;28;20792;-77
2021/12/19 03:38:58;;;;;;;10.10;6.47;;;;;;;0.14;100.00;60825.84;5071108;28;20507;-77
2021/12/19 03:44:25;;;;;;;12.47;6.67;;;;;;;-0.09;100.00;60796.47;5072535;28;20466;-77
2021/12/19 03:46:53;;;;;;;12.07;5.97;;;;;;;-0.16;100.00;60789.06;5071744;28;20455;-77
2021/12/19 03:49:28;;;;;;;10.30;5.40;;;;;;;-0.27;100.00;60777.41;5072100;28;20435;-77
2021/12/19 03:51:56;;;;;;;10.30;6.03;;;;;;;-0.41;100.00;60763.13;5071722;28;20474;-79
2021/12/19 03:54:46;;;;;;;10.20;6.33;;;;;;;-0.67;100.00;60745.59;5071701;28;20439;-77
2021/12/19 03:57:15;;;;;;;10.43;6.43;;;;;;;-1.30;100.00;60674.44;5071857;28;20477;-75
2021/12/19 03:59:47;;;;;;;10.40;5.83;;;;;;;-1.06;100.00;60694.84;5071987;28;20459;-76
2021/12/19 04:02:22;;;;;;;10.37;5.87;;;;;;;-2.20;100.00;60579.81;5070479;28;20435;-77
2021/12/19 04:04:50;;;;;;;10.70;6.47;;;;;;;-1.14;100.00;60685.84;5071414;28;20545;-78
2021/12/19 04:07:18;;;;;;;11.80;6.63;;;;;;;-1.83;100.00;60613.41;5071571;28;20451;-76
2021/12/19 04:10:05;;;;;;;10.90;5.93;;;;;;;-0.54;100.00;60749.34;5071565;28;20504;-75
2021/12/19 04:12:34;;;;;;;11.13;5.63;;;;;;;-0.48;100.00;60755.19;5071003;28;20848;-75
2021/12/19 04:15:05;;;;;;;9.17;5.97;;;;;;;-0.54;100.00;60751.31;5071861;28;20438;-78
2021/12/19 04:17:39;;;;;;;10.27;6.20;;;;;;;-0.59;100.00;60748.53;5072115;28;20434;-77
2021/12/19 04:20:11;;;;;;;10.93;6.33;;;;;;;-1.89;100.00;60609.56;5072315;28;20840;-77
2021/12/19 04:22:38;;;;;;;13.73;6.70;;;;;;;-0.62;100.00;60745.34;5072126;28;20456;-76
2021/12/19 04:25:16;;;;;;;12.67;6.50;;;;;;;-0.96;100.00;60705.41;5071818;28;20938;-76
2021/12/19 04:27:47;;;;;;;11.13;6.33;;;;;;;-1.13;100.00;60687.44;5071233;28;20499;-75
2021/12/19 04:30:21;;;;;;;9.27;5.90;;;;;;;-2.46;100.00;60552.34;5075797;28;20446;-76
2021/12/19 04:33:09;;;;;;;11.00;5.57;;;;;;;-0.95;100.00;60711.47;5075796;28;20837;-77
2021/12/19 04:35:44;;;;;;;9.20;5.60;;;;;;;-2.07;100.00;60595.53;5074738;28;20451;-77
2021/12/19 04:41:46;;;;;;;11.33;6.13;;;;;;;-1.48;100.00;60660.41;5075697;28;20434;-77
2021/12/19 04:58:22;;;;;;;7.73;5.40;;;;;;;-1.85;100.00;60616.28;5071891;28;20447;-78
2021/12/19 05:03:43;;;;;;;9.47;5.50;;;;;;;-0.65;100.00;60742.16;5074491;28;20443;-77
2021/12/19 05:06:18;;;;;;;11.37;5.80;;;;;;;-0.87;100.00;60717.44;5075510;28;20812;-77
2021/12/19 05:14:31;;;;;;;10.13;6.00;;;;;;;-1.05;100.00;60698.41;5074786;28;20446;-78
2021/12/19 05:17:04;;;;;;;9.47;5.53;;;;;;;-0.50;100.00;60753.56;5073225;28;20438;-76
2021/12/19 05:19:44;;;;;;;11.67;6.37;;;;;;;-0.41;100.00;60765.09;5074770;28;20439;-78
2021/12/19 05:22:12;;;;;;;12.40;6.47;;;;;;;-1.44;100.00;60654.63;5074567;28;20455;-77
2021/12/19 05:27:29;;;;;;;10.77;6.27;;;;;;;-0.23;100.00;60784.16;5074098;28;21027;-79
2021/12/19 05:30:05;;;;;;;14.13;7.10;;;;;;;-0.22;100.00;60787.72;5074117;28;20437;-77
2021/12/19 05:32:34;;;;;;;11.07;6.50;;;;;;;-0.30;100.00;60774.75;5074190;28;20555;-78
2021/12/19 05:35:03;;;;;;;11.20;5.97;;;;;;;-0.28;100.00;60776.34;5074031;28;20442;-77
2021/12/19 05:45:55;;;;;;;10.83;6.37;;;;;;;-0.33;100.00;60771.06;5073777;28;20442;-74
2021/12/19 05:48:25;;;;;;;11.90;7.13;;;;;;;-0.30;100.00;60774.25;5073360;28;20450;-76
2021/12/19 05:50:52;;;;;;;11.73;6.40;;;;;;;-1.13;100.00;60694.41;5074522;28;20544;-76
2021/12/19 05:53:20;;;;;;;12.67;6.77;;;;;;;-1.59;100.00;60643.78;5073973;28;20486;-80
2021/12/19 05:55:48;;;;;;;10.63;6.30;;;;;;;-0.16;100.00;60786.56;5074512;28;20428;-75
2021/12/19 05:58:20;;;;;;;15.00;7.00;;;;;;;-0.13;100.00;60792.22;5073535;28;20492;-75
2021/12/19 06:00:50;;;;;;;11.07;7.00;;;;;;;-0.19;100.00;60790.88;5073702;28;20439;-76
2021/12/19 06:03:17;;;;;;;13.27;7.43;;;;;;;-0.08;100.00;60800.03;5072576;28;20512;-75
2021/12/19 06:05:50;;;;;;;15.00;7.70;;;;;;;-0.10;100.00;60800.44;5073624;28;20427;-76
2021/12/19 06:08:17;;;;;;;15.37;6.47;;;;;;;-1.14;100.00;60688.88;5074011;28;20434;-75
2021/12/19 06:10:43;;;;;;;12.30;6.20;;;;;;;-0.20;100.00;60784.81;5072909;28;20443;-77
2021/12/19 06:13:11;;;;;;;12.67;6.67;;;;;;;-0.22;100.00;60785.22;5072993;28;20980;-77
2021/12/19 06:15:38;;;;;;;13.07;7.23;;;;;;;-1.27;100.00;60677.63;5072649;28;20455;-76
2021/12/19 06:18:11;;;;;;;14.03;7.23;;;;;;;-1.87;100.00;60609.19;5073092;28;20512;-76
2021/12/19 06:20:45;;;;;;;10.17;6.20;;;;;;;-0.18;100.00;60786.94;5073896;28;20445;-75
2021/12/19 06:23:16;;;;;;;10.97;6.07;;;;;;;-0.13;100.00;60792.22;5072883;28;20957;-76
2021/12/19 06:25:46;;;;;;;10.97;6.60;;;;;;;-1.30;100.00;60674.44;5072582;28;20984;-75
2021/12/19 06:28:19;;;;;;;11.30;6.20;;;;;;;-0.10;100.00;60795.41;5073478;28;20539;-78
2021/12/19 06:30:50;;;;;;;14.00;6.17;;;;;;;-0.09;100.00;60796.47;5073453;28;20476;-77
2021/12/19 06:33:21;;;;;;;12.47;6.60;;;;;;;-0.12;100.00;60793.31;5072740;28;20541;-75
2021/12/19 06:35:55;;;;;;;12.53;7.40;;;;;;;-1.28;100.00;60671.56;5073039;28;20450;-76
2021/12/19 06:38:27;;;;;;;13.57;7.73;;;;;;;-0.03;100.00;60805.31;5072958;28;20500;-76
2021/12/19 06:40:58;;;;;;;15.20;6.77;;;;;;;-0.96;100.00;60705.41;5073234;28;20450;-78
2021/12/19 06:43:30;;;;;;;12.47;6.57;;;;;;;0.06;100.00;60814.88;5072660;28;20508;-76
2021/12/19 06:45:57;;;;;;;16.87;7.77;;;;;;;-0.55;100.00;60752.75;5072676;28;20576;-77
2021/12/19 06:48:29;;;;;;;12.33;7.53;;;;;;;0.26;100.00;60830.53;5072339;28;20867;-75
2021/12/19 06:50:57;;;;;;;15.07;7.10;;;;;;;0.06;100.00;60812.38;5072398;28;20489;-76
2021/12/19 06:53:27;;;;;;;15.43;7.80;;;;;;;-0.53;100.00;60752.38;5072062;28;20558;-76
2021/12/19 06:55:54;;;;;;;10.23;6.70;;;;;;;0.00;100.00;60801.00;5073013;28;20551;-79
2021/12/19 06:58:21;;;;;;;13.33;7.17;;;;;;;1.72;100.00;60987.31;5072299;28;20538;-75
2021/12/19 07:00:49;;;;;;;14.40;7.40;;;;;;;2.22;100.00;61042.38;5072407;28;20431;-78
2021/12/19 07:03:23;;;;;;;10.73;7.07;;;;;;;2.50;100.00;61070.16;5072791;28;20446;-76
2021/12/19 07:05:57;;;;;;;11.40;7.43;;;;;;;3.41;100.00;61166.31;5072030;28;20467;-77
2021/12/19 07:08:25;;;;;;;15.17;7.40;;;;;;;4.10;100.00;61236.13;5072061;28;20961;-75
2021/12/19 07:10:55;;;;;;;9.97;6.70;;;;;;;4.64;100.00;61295.59;5071956;28;20519;-80
2021/12/19 07:13:23;;;;;;;12.53;6.97;;;;;;;5.32;100.00;61365.50;5072263;28;20485;-76
2021/12/19 07:15:57;;;;;;;10.13;6.53;;;;;;;5.49;100.00;61391.19;5072138;28;20442;-78
2021/12/19 07:18:25;;;;;;;10.40;6.33;;;;;;;6.11;100.00;61451.19;5071996;28;20957;-78
2021/12/19 07:20:55;;;;;;;12.93;6.83;;;;;;;4.54;100.00;61290.00;5071717;28;20812;-77
2021/12/19 07:23:23;;;;;;;10.87;6.23;;;;;;;5.74;100.00;61407.72;5071846;28;21026;-77
2021/12/19 07:25:53;;;;;;;10.53;6.47;;;;;;;5.24;100.00;61359.50;5071896;28;20842;-77
2021/12/19 07:28:24;;;;;;;14.50;7.63;;;;;;;5.79;100.00;61418.13;5071980;28;20478;-76
2021/12/19 07:30:51;;;;;;;12.37;7.33;;;;;;;5.30;100.00;61370.94;5071835;28;20446;-76
2021/12/19 07:33:20;;;;;;;10.37;7.00;;;;;;;5.01;100.00;61340.56;5071517;28;20486;-76
2021/12/19 07:35:49;;;;;;;14.90;7.27;;;;;;;5.91;100.00;61430.94;5078825;28;20961;-77
2021/12/19 07:38:24;;;;;;;12.67;7.57;;;;;;;6.01;100.00;61440.50;5076858;28;20453;-76
2021/12/19 07:40:54;;;;;;;14.40;7.60;;;;;;;5.31;100.00;61369.50;5071757;28;20446;-78
2021/12/19 07:43:22;;;;;;;15.60;9.73;;;;;;;3.69;100.00;61195.56;5071940;28;20438;-77
2021/12/19 07:45:50;;;;;;;16.10;9.07;;;;;;;3.95;100.00;61225.75;5071641;28;20477;-74
2021/12/19 07:48:17;;;;;;;19.70;10.93;;;;;;;3.75;100.00;61203.94;5071804;28;20471;-77
2021/12/19 07:50:46;;;;;;;14.07;8.37;;;;;;;2.35;100.00;61059.25;5070524;28;20942;-77
2021/12/19 07:53:19;;;;;;;12.67;7.63;;;;;;;3.19;100.00;61147.44;5071656;28;20474;-77
2021/12/19 07:55:48;;;;;;;11.57;6.57;;;;;;;1.68;100.00;60983.06;5071670;28;20427;-76
2021/12/19 07:58:15;;;;;;;13.67;7.40;;;;;;;0.77;100.00;60897.63;5070398;28;20439;-77
2021/12/19 08:00:56;;;;;;;13.93;7.47;;;;;;;2.24;100.00;61047.56;5072018;28;20443;-78
2021/12/19 08:03:28;;;;;;;14.43;8.37;;;;;;;2.66;100.00;61086.59;5074770;28;20438;-77
2021/12/19 08:05:59;;;;;;;10.50;5.73;;;;;;;1.13;100.00;60929.75;5075493;28;20450;-76
2021/12/19 08:08:33;;;;;;;12.43;6.77;;;;;;;2.31;100.00;61049.97;5075382;28;20450;-77
2021/12/19 08:13:49;;;;;;;11.87;6.43;;;;;;;2.00;100.00;61024.56;5075451;28;20493;-78
2021/12/19 08:16:20;;;;;;;18.23;7.60;;;;;;;1.19;100.00;60934.13;5075481;28;20445;-77
2021/12/19 08:18:54;;;;;;;16.73;8.00;;;;;;;2.13;100.00;61035.88;5075252;28;20443;-77
2021/12/19 08:21:21;;;;;;;11.77;6.97;;;;;;;2.28;100.00;61046.78;5075275;28;20541;-80
2021/12/19 08:23:49;;;;;;;13.20;7.50;;;;;;;2.29;100.00;61050.38;5074515;28;20450;-76
2021/12/19 08:26:17;;;;;;;13.80;7.47;;;;;;;2.28;100.00;61046.78;5074863;28;20445;-77
2021/12/19 08:28:45;;;;;;;10.37;6.43;;;;;;;2.36;100.00;61057.78;5075018;28;20486;-75
2021/12/19 08:31:14;;;;;;;14.27;7.03;;;;;;;0.89;100.00;60896.78;5074989;28;20477;-77
2021/12/19 08:33:43;;;;;;;15.47;6.87;;;;;;;1.94;100.00;61010.69;5073427;28;20966;-77
2021/12/19 08:36:10;;;;;;;10.13;6.00;;;;;;;1.25;100.00;60943.00;5075444;28;20497;-76
2021/12/19 08:38:38;;;;;;;11.30;6.77;;;;;;;2.46;100.00;61070.91;5075018;28;20438;-77
2021/12/19 08:41:15;;;;;;;15.57;6.93;;;;;;;2.47;100.00;61069.47;5074809;28;20505;-76
2021/12/19 08:43:42;;;;;;;12.77;6.60;;;;;;;1.74;100.00;60994.47;5074816;28;20488;-78
2021/12/19 08:46:11;;;;;;;10.03;5.70;;;;;;;1.23;100.00;60935.34;5075913;28;20496;-75
2021/12/19 08:48:41;;;;;;;11.63;7.27;;;;;;;2.25;100.00;61046.13;5074692;28;20979;-76
2021/12/19 08:51:09;;;;;;;12.97;7.30;;;;;;;1.93;100.00;61014.66;5074530;28;20435;-75
2021/12/19 08:53:36;;;;;;;18.33;7.83;;;;;;;2.55;100.00;61075.47;5074463;28;20474;-77
2021/12/19 08:56:08;;;;;;;12.63;7.33;;;;;;;1.71;100.00;60991.28;5074388;28;20462;-78
2021/12/19 08:58:39;;;;;;;12.20;7.37;;;;;;;2.60;100.00;61082.22;5074197;28;20453;-75
2021/12/19 09:01:07;;;;;;;18.37;7.63;;;;;;;1.78;100.00;60991.19;5074466;28;20541;-77
2021/12/19 09:03:36;;;;;;;16.90;7.70;;;;;;;1.47;100.00;60960.81;5073666;28;20454;-76
2021/12/19 09:06:06;;;;;;;14.27;7.87;;;;;;;2.47;100.00;61072.00;5074194;28;20443;-77
2021/12/19 09:08:35;;;;;;;17.90;7.63;;;;;;;2.14;100.00;61031.38;5074005;28;20980;-79
2021/12/19 09:11:08;;;;;;;11.23;7.30;;;;;;;1.30;100.00;60942.75;5074008;28;20937;-75
2021/12/19 09:13:54;;;;;;;15.33;8.00;;;;;;;2.43;100.00;61062.72;5073727;28;20517;-79
2021/12/19 09:16:23;;;;;;;13.87;7.50;;;;;;;1.14;100.00;60925.78;5072233;28;20437;-76
2021/12/19 09:18:50;;;;;;;14.13;7.43;;;;;;;0.62;100.00;60871.72;5074023;28;20816;-77
2021/12/19 09:21:19;;;;;;;12.43;7.47;;;;;;;2.06;100.00;61028.44;5074094;28;20454;-78
2021/12/19 09:26:28;;;;;;;16.20;8.33;;;;;;;2.16;100.00;61033.50;5073981;28;20457;-76
2021/12/19 09:28:56;;;;;;;12.87;7.27;;;;;;;2.10;100.00;61027.66;5073016;28;20474;-75
2021/12/19 09:31:23;;;;;;;17.37;7.80;;;;;;;2.01;100.00;61018.13;5073484;28;20434;-79
2021/12/19 09:33:51;;;;;;;14.27;8.67;;;;;;;1.91;100.00;61007.50;5073492;28;20482;-78
2021/12/19 09:36:18;;;;;;;12.50;7.57;;;;;;;1.92;100.00;61008.56;5073557;28;20501;-76
2021/12/19 09:38:48;;;;;;;17.23;9.07;;;;;;;1.06;100.00;60927.31;5073401;28;20969;-77
2021/12/19 09:41:27;;;;;;;18.60;9.33;;;;;;;0.88;100.00;60898.22;5073220;28;20557;-77
2021/12/19 09:43:58;;;;;;;11.40;7.03;;;;;;;1.91;100.00;61007.50;5073354;28;20451;-77
2021/12/19 09:46:31;;;;;;;14.00;7.33;;;;;;;0.29;100.00;60836.19;5081034;28;21004;-76
2021/12/19 09:49:00;;;;;;;11.43;7.17;;;;;;;1.66;100.00;60978.44;5079611;28;20889;-78
2021/12/19 09:51:30;;;;;;;14.67;7.80;;;;;;;1.98;100.00;61014.91;5073152;28;20446;-77
2021/12/19 09:53:57;;;;;;;23.63;11.47;;;;;;;2.05;100.00;61022.38;5073263;28;20535;-75
2021/12/19 09:56:26;;;;;;;19.03;9.57;;;;;;;0.76;100.00;60886.56;5073909;28;20443;-80
2021/12/19 09:58:55;;;;;;;17.03;8.10;;;;;;;2.10;100.00;61027.13;5073127;28;20521;-77
2021/12/19 10:01:26;;;;;;;16.83;9.57;;;;;;;2.02;100.00;61021.69;5072359;28;20446;-77
2021/12/19 10:03:55;;;;;;;17.23;9.23;;;;;;;0.50;100.00;60863.47;5073760;28;20439;-75
2021/12/19 10:06:30;;;;;;;18.23;10.30;;;;;;;1.99;100.00;61021.00;5075226;28;20431;-75
2021/12/19 10:09:15;;;;;;;14.33;8.23;;;;;;;1.99;100.00;61018.50;5071909;28;20442;-76
2021/12/19 10:11:55;;;;;;;13.90;8.10;;;;;;;0.90;100.00;60905.34;5072780;28;20533;-78
2021/12/19 10:14:29;;;;;;;15.07;8.60;;;;;;;2.28;100.00;61049.28;5072458;28;20486;-77
2021/12/19 10:17:07;;;;;;;15.13;8.60;;;;;;;2.00;100.00;61017.03;5072876;28;20447;-78
2021/12/19 10:19:46;;;;;;;16.20;9.07;;;;;;;2.45;100.00;61064.84;5072720;28;20495;-78
2021/12/19 10:22:29;;;;;;;19.03;9.93;;;;;;;2.42;100.00;61066.66;5072937;28;20439;-78
2021/12/19 10:24:58;;;;;;;17.37;9.90;;;;;;;2.53;100.00;61075.84;5072892;28;20454;-77
2021/12/19 10:27:39;;;;;;;17.00;9.50;;;;;;;2.56;100.00;61079.03;5072155;28;20884;-77
2021/12/19 10:30:17;;;;;;;22.10;10.43;;;;;;;2.26;100.00;61049.69;5072974;28;20434;-77
2021/12/19 10:32:53;;;;;;;17.57;10.33;;;;;;;2.71;100.00;61096.41;5073229;28;20843;-76
2021/12/19 10:35:23;;;;;;;15.30;8.97;;;;;;;1.77;100.00;60997.66;5072470;28;20482;-77
2021/12/19 10:37:53;;;;;;;18.60;9.93;;;;;;;0.97;100.00;60907.75;5071079;28;20465;-77
2021/12/19 10:40:24;;;;;;;12.87;8.33;;;;;;;2.45;100.00;61064.84;5071673;28;20447;-74
2021/12/19 10:42:58;;;;;;;15.77;8.90;;;;;;;2.58;100.00;61075.06;5072285;28;20434;-77
2021/12/19 10:45:33;;;;;;;15.10;9.20;;;;;;;2.36;100.00;61054.75;5072078;28;20538;-77
2021/12/19 10:48:16;;;;;;;13.27;7.93;;;;;;;2.56;100.00;61075.97;5072397;28;20483;-77
2021/12/19 10:50:45;;;;;;;16.80;8.90;;;;;;;2.63;100.00;61085.94;5072372;28;20478;-76
2021/12/19 10:53:15;;;;;;;14.60;8.73;;;;;;;2.81;100.00;61102.00;5072152;28;20864;-76
2021/12/19 10:55:50;;;;;;;19.27;9.57;;;;;;;2.58;100.00;61078.63;5072703;28;20841;-76
2021/12/19 10:58:35;;;;;;;18.50;9.83;;;;;;;2.89;100.00;61110.50;5072053;28;20528;-77
2021/12/19 11:01:14;;;;;;;19.27;10.27;;;;;;;2.68;100.00;61088.72;5073056;28;20430;-75
2021/12/19 11:03:58;;;;;;;17.33;9.87;;;;;;;3.02;100.00;61126.84;5075229;28;20477;-75
2021/12/19 11:06:31;;;;;;;17.33;10.13;;;;;;;2.00;100.00;61016.50;5071154;28;20434;-76
2021/12/19 11:09:02;;;;;;;17.53;8.93;;;;;;;3.17;100.00;61142.78;5072135;28;20451;-75
2021/12/19 11:11:47;;;;;;;16.93;10.50;;;;;;;3.30;100.00;61154.63;5071763;28;20442;-76
2021/12/19 11:14:22;;;;;;;16.80;9.73;;;;;;;2.24;100.00;61047.56;5071828;28;20492;-77
2021/12/19 11:16:50;;;;;;;17.33;10.20;;;;;;;2.81;100.00;61102.00;5072169;28;20442;-77
2021/12/19 11:19:23;;;;;;;19.40;10.33;;;;;;;3.63;100.00;61183.63;5071222;28;20876;-78
2021/12/19 11:21:53;;;;;;;15.17;10.50;;;;;;;4.61;100.00;61297.47;5071436;28;20446;-77
2021/12/19 11:24:23;;;;;;;16.00;10.07;;;;;;;5.40;100.00;61371.50;5071998;28;20450;-76
2021/12/19 11:26:57;;;;;;;18.60;10.20;;;;;;;6.15;100.00;61460.50;5073548;28;20462;-76
2021/12/19 11:29:25;;;;;;;14.73;9.70;;;;;;;6.21;100.00;61461.84;5031378;28;20536;-79
2021/12/19 11:31:59;;;;;;;12.23;8.07;;;;;;;7.35;100.00;61583.47;5030388;28;20967;-77
2021/12/19 11:34:49;;;;;;;12.70;6.53;;;;;;;7.44;100.00;61598.16;5032274;28;20516;-78
2021/12/19 11:37:25;;;;;;;12.40;7.77;;;;;;;7.71;100.00;61620.88;5030471;28;20468;-77
2021/12/19 11:40:02;;;;;;;11.97;6.70;;;;;;;7.50;100.00;61598.97;5031435;28;20463;-77
2021/12/19 11:42:35;;;;;;;11.40;7.23;;;;;;;7.90;100.00;61641.69;5031753;28;20443;-79
2021/12/19 11:45:20;;;;;;;12.43;7.30;;;;;;;8.27;100.00;61683.25;5031857;28;20914;-76
2021/12/19 11:47:52;;;;;;;12.90;8.43;;;;;;;7.43;100.00;61594.56;5032189;28;20444;-78
2021/12/19 11:53:31;;;;;;;14.30;7.90;;;;;;;7.32;100.00;61585.34;5031469;28;20444;-80
2021/12/19 11:56:14;;;;;;;11.70;9.00;;;;;;;7.29;100.00;61582.13;5034359;28;20544;-79
2021/12/19 11:58:55;;;;;;;12.87;7.73;;;;;;;8.37;100.00;61696.47;5038418;28;20467;-77
2021/12/19 12:01:34;;;;;;;13.03;7.57;;;;;;;8.82;100.00;61747.13;5032018;28;20919;-80
2021/12/19 12:04:05;;;;;;;13.03;8.13;;;;;;;9.21;100.00;61786.31;5031819;28;20458;-78
2021/12/19 12:06:48;;;;;;;9.57;6.87;;;;;;;9.75;100.00;61843.00;5031656;28;20440;-77
2021/12/19 12:09:43;;;;;;;10.33;6.70;;;;;;;9.89;100.00;61852.91;5031811;28;20439;-77
2021/12/19 12:12:33;;;;;;;11.47;7.23;;;;;;;8.62;100.00;61720.66;5032051;28;20476;-78
2021/12/19 12:15:32;;;;;;;12.33;7.13;;;;;;;7.38;100.00;61591.75;5031759;28;20491;-76
2021/12/19 12:18:01;;;;;;;13.40;7.77;;;;;;;6.71;100.00;61515.16;5031296;28;20883;-78
2021/12/19 12:20:43;;;;;;;12.37;7.67;;;;;;;5.82;100.00;61423.84;5031185;28;20464;-78
2021/12/19 12:23:11;;;;;;;14.63;8.47;;;;;;;4.91;100.00;61324.88;5031521;28;20456;-78
2021/12/19 12:25:43;;;;;;;16.17;9.53;;;;;;;6.31;100.00;61477.56;5031425;28;20880;-79
2021/12/19 12:28:15;;;;;;;13.10;8.80;;;;;;;6.59;100.00;61502.91;5060012;28;21027;-77
2021/12/19 12:30:52;;;;;;;13.30;7.33;;;;;;;5.88;100.00;61429.72;5071057;28;20961;-80
2021/12/19 12:33:32;;;;;;;13.80;7.93;;;;;;;4.48;100.00;61279.09;5070109;28;20450;-75
2021/12/19 12:36:00;;;;;;;17.73;8.17;;;;;;;4.27;100.00;61259.78;5069988;28;20925;-78
2021/12/19 12:38:32;;;;;;;16.23;9.37;;;;;;;4.10;100.00;61244.22;5071193;28;20492;-77
2021/12/19 12:41:06;;;;;;;16.63;8.50;;;;;;;3.75;100.00;61206.97;5070844;28;20435;-79
2021/12/19 12:43:43;;;;;;;16.83;9.77;;;;;;;3.64;100.00;61192.78;5071099;28;20575;-78
2021/12/19 12:46:26;;;;;;;16.70;9.17;;;;;;;2.80;100.00;61100.97;5071486;28;20521;-77
2021/12/19 12:49:02;;;;;;;14.90;9.27;;;;;;;3.23;100.00;61149.16;5072779;28;20466;-79
2021/12/19 12:51:33;;;;;;;20.27;9.57;;;;;;;3.12;100.00;61134.97;5074591;28;20508;-77
2021/12/19 12:54:10;;;;;;;15.23;8.87;;;;;;;2.80;100.00;61101.47;5074389;28;20423;-79
2021/12/19 12:56:46;;;;;;;17.93;10.03;;;;;;;2.89;100.00;61110.50;5075370;28;20434;-78
2021/12/19 12:59:15;;;;;;;20.00;11.00;;;;;;;2.08;100.00;61030.56;5073488;28;20960;-78